createdAt,value
2018-09-17T00:01:38.187Z,83.73
2018-09-17T00:04:07.813Z,83.94
2018-09-17T00:06:37.373Z,83.71
2018-09-17T00:09:10.733Z,85.21
2018-09-17T00:11:40.263Z,85.91
2018-09-17T00:14:09.682Z,85.49
2018-09-17T00:16:39.234Z,85.93
2018-09-17T00:19:08.716Z,84.63
2018-09-17T00:21:38.158Z,83.95
2018-09-17T00:24:08.236Z,84.68
2018-09-17T00:26:37.780Z,85.15
2018-09-17T00:29:07.201Z,85.67
2018-09-17T00:31:36.967Z,86.39
2018-09-17T00:34:06.402Z,85.47
2018-09-17T00:36:35.882Z,85.50
2018-09-17T00:39:08.789Z,85.37
2018-09-17T00:41:38.340Z,86.04
2018-09-17T00:44:08.473Z,85.95
2018-09-17T00:46:37.939Z,84.93
2018-09-17T00:49:07.579Z,85.71
2018-09-17T00:51:37.089Z,85.67
2018-09-17T00:54:06.681Z,85.27
2018-09-17T00:56:36.207Z,86.43
2018-09-17T00:59:05.771Z,86.75
2018-09-17T01:01:35.198Z,87.03
2018-09-17T01:04:04.674Z,86.75
2018-09-17T01:06:34.097Z,87.17
2018-09-17T01:09:03.657Z,87.66
2018-09-17T01:11:33.447Z,87.50
2018-09-17T01:14:02.887Z,87.70
2018-09-17T01:16:32.483Z,86.41
2018-09-17T01:19:02.067Z,86.32
2018-09-17T01:21:31.535Z,86.22
2018-09-17T01:24:01.186Z,85.83
2018-09-17T01:26:31.526Z,85.92
2018-09-17T01:29:01.113Z,86.03
2018-09-17T01:31:30.730Z,86.18
2018-09-17T01:34:00.214Z,86.28
2018-09-17T01:36:29.738Z,86.14
2018-09-17T01:38:59.700Z,85.90
2018-09-17T01:41:29.217Z,86.03
2018-09-17T01:43:58.653Z,86.18
2018-09-17T01:46:28.228Z,86.00
2018-09-17T01:50:27.195Z,85.82
2018-09-17T01:52:56.652Z,86.81
2018-09-17T01:55:26.161Z,86.07
2018-09-17T01:57:55.685Z,85.95
2018-09-17T02:00:25.196Z,86.50
2018-09-17T02:02:55.819Z,86.80
2018-09-17T02:05:25.378Z,86.94
2018-09-17T02:07:54.941Z,86.80
2018-09-17T02:10:24.420Z,87.43
2018-09-17T02:12:53.859Z,87.61
2018-09-17T02:15:23.383Z,87.58
2018-09-17T02:17:52.946Z,87.95
2018-09-17T02:20:22.497Z,87.77
2018-09-17T02:22:52.596Z,87.10
2018-09-17T02:25:22.058Z,87.69
2018-09-17T02:27:51.558Z,87.65
2018-09-17T02:30:21.059Z,87.18
2018-09-17T02:32:50.991Z,86.82
2018-09-17T02:35:20.531Z,87.34
2018-09-17T02:37:50.130Z,87.35
2018-09-17T02:40:20.253Z,87.64
2018-09-17T02:42:50.836Z,88.48
2018-09-17T02:45:21.338Z,88.12
2018-09-17T02:47:50.793Z,88.44
2018-09-17T02:50:20.374Z,88.19
2018-09-17T02:54:19.009Z,88.44
2018-09-17T02:56:48.497Z,88.87
2018-09-17T02:59:17.939Z,88.49
2018-09-17T03:01:47.693Z,87.45
2018-09-17T03:04:17.798Z,87.60
2018-09-17T03:06:50.603Z,87.38
2018-09-17T03:09:20.166Z,88.11
2018-09-17T03:11:49.685Z,88.43
2018-09-17T03:14:26.836Z,87.24
2018-09-17T03:17:12.674Z,88.04
2018-09-17T03:19:43.166Z,89.01
2018-09-17T03:22:13.650Z,88.31
2018-09-17T03:24:43.116Z,89.24
2018-09-17T03:27:12.539Z,89.29
2018-09-17T03:29:42.198Z,88.87
2018-09-17T03:32:11.764Z,88.48
2018-09-17T03:34:41.252Z,88.78
2018-09-17T03:37:10.705Z,89.08
2018-09-17T03:39:40.496Z,89.25
2018-09-17T03:42:10.065Z,89.35
2018-09-17T03:44:39.520Z,89.73
2018-09-17T03:47:09.289Z,89.79
2018-09-17T03:49:38.900Z,90.21
2018-09-17T03:52:08.402Z,89.60
2018-09-17T03:54:37.943Z,89.40
2018-09-17T03:57:07.755Z,90.05
2018-09-17T03:59:37.212Z,89.34
2018-09-17T04:02:06.765Z,89.06
2018-09-17T04:04:36.310Z,88.15
2018-09-17T04:07:05.773Z,88.31
2018-09-17T04:09:36.955Z,89.04
2018-09-17T04:12:06.733Z,89.46
2018-09-17T04:14:36.173Z,89.94
2018-09-17T04:17:05.701Z,90.03
2018-09-17T04:19:35.176Z,89.86
2018-09-17T04:22:04.725Z,90.32
2018-09-17T04:24:34.229Z,89.11
2018-09-17T04:27:03.705Z,89.54
2018-09-17T04:29:33.336Z,89.90
2018-09-17T04:32:02.981Z,90.82
2018-09-17T04:34:32.418Z,88.23
2018-09-17T04:37:01.990Z,88.77
2018-09-17T04:39:31.446Z,89.08
2018-09-17T04:42:00.942Z,89.34
2018-09-17T04:44:30.510Z,89.60
2018-09-17T04:46:59.973Z,90.18
2018-09-17T04:49:29.540Z,91.11
2018-09-17T04:51:59.126Z,91.64
2018-09-17T04:54:28.651Z,91.29
2018-09-17T04:56:58.226Z,91.52
2018-09-17T04:59:27.718Z,90.27
2018-09-17T05:01:57.248Z,90.87
2018-09-17T05:04:26.709Z,90.42
2018-09-17T05:06:56.250Z,90.48
2018-09-17T05:09:25.933Z,90.04
2018-09-17T05:11:55.346Z,90.02
2018-09-17T05:14:25.283Z,90.13
2018-09-17T05:16:55.347Z,90.22
2018-09-17T05:19:24.833Z,89.95
2018-09-17T05:21:54.278Z,91.91
2018-09-17T05:24:23.840Z,91.50
2018-09-17T05:26:53.350Z,91.10
2018-09-17T05:29:22.950Z,91.79
2018-09-17T05:31:52.827Z,90.85
2018-09-17T05:34:22.323Z,90.31
2018-09-17T05:36:52.442Z,90.38
2018-09-17T05:39:22.000Z,90.23
2018-09-17T05:41:51.496Z,89.97
2018-09-17T05:44:20.968Z,89.36
2018-09-17T05:46:50.553Z,89.14
2018-09-17T05:49:19.967Z,88.42
2018-09-17T05:51:49.514Z,88.53
2018-09-17T05:54:19.105Z,88.42
2018-09-17T05:56:48.672Z,88.37
2018-09-17T05:59:18.208Z,87.69
2018-09-17T06:01:47.776Z,87.50
2018-09-17T06:04:17.265Z,87.65
2018-09-17T06:06:46.893Z,87.26
2018-09-17T06:09:16.398Z,87.09
2018-09-17T06:11:46.100Z,86.89
2018-09-17T06:14:15.584Z,86.99
2018-09-17T06:16:45.117Z,86.04
2018-09-17T06:19:14.675Z,86.58
2018-09-17T06:21:44.191Z,86.00
2018-09-17T06:24:13.748Z,84.45
2018-09-17T06:26:43.272Z,84.15
2018-09-17T06:29:12.742Z,83.59
2018-09-17T06:31:42.354Z,84.01
2018-09-17T06:34:11.858Z,83.18
2018-09-17T06:36:41.332Z,82.54
2018-09-17T06:39:11.632Z,82.00
2018-09-17T06:41:41.333Z,82.33
2018-09-17T06:44:10.746Z,81.76
2018-09-17T06:46:40.282Z,81.04
2018-09-17T06:49:09.756Z,80.89
2018-09-17T06:51:39.503Z,81.03
2018-09-17T06:54:09.013Z,80.88
2018-09-17T06:56:38.658Z,80.01
2018-09-17T06:59:08.790Z,79.47
2018-09-17T07:01:38.276Z,79.66
2018-09-17T07:04:07.942Z,79.18
2018-09-17T07:06:37.506Z,77.95
2018-09-17T07:09:11.364Z,77.84
2018-09-17T07:11:41.100Z,77.18
2018-09-17T07:14:10.736Z,75.95
2018-09-17T07:16:40.360Z,75.57
2018-09-17T07:19:10.641Z,74.71
2018-09-17T07:21:40.263Z,74.11
2018-09-17T07:24:09.901Z,73.20
2018-09-17T07:26:39.611Z,73.02
2018-09-17T07:29:09.133Z,73.44
2018-09-17T07:31:38.809Z,73.05
2018-09-17T07:34:08.391Z,72.60
2018-09-17T07:36:37.934Z,71.76
2018-09-17T07:39:11.187Z,71.27
2018-09-17T07:41:40.832Z,71.16
2018-09-17T07:44:10.284Z,70.85
2018-09-17T07:46:39.746Z,70.18
2018-09-17T07:49:09.230Z,70.16
2018-09-17T07:51:38.804Z,69.87
2018-09-17T07:54:08.241Z,69.19
2018-09-17T07:56:37.966Z,69.62
2018-09-17T07:59:07.640Z,68.66
2018-09-17T08:01:37.787Z,67.88
2018-09-17T08:04:07.420Z,67.09
2018-09-17T08:06:37.558Z,67.62
2018-09-17T08:09:11.779Z,66.29
2018-09-17T08:11:42.198Z,66.45
2018-09-17T08:14:12.249Z,64.78
2018-09-17T08:16:41.942Z,64.96
2018-09-17T08:19:12.101Z,64.51
2018-09-17T08:21:41.580Z,63.84
2018-09-17T08:24:11.043Z,62.82
2018-09-17T08:26:40.581Z,62.84
2018-09-17T08:29:10.293Z,62.39
2018-09-17T08:31:39.887Z,63.28
2018-09-17T08:34:09.390Z,61.95
2018-09-17T08:36:39.010Z,60.38
2018-09-17T08:39:12.300Z,60.76
2018-09-17T08:41:42.434Z,60.18
2018-09-17T08:44:12.752Z,60.29
2018-09-17T08:46:42.237Z,59.76
2018-09-17T08:49:11.851Z,59.68
2018-09-17T08:51:41.478Z,58.54
2018-09-17T08:54:11.623Z,57.86
2018-09-17T08:57:00.411Z,57.58
2018-09-17T08:59:34.984Z,57.83
2018-09-17T09:02:09.570Z,58.25
2018-09-17T09:04:44.553Z,58.11
2018-09-17T09:07:19.063Z,57.97
2018-09-17T09:09:48.701Z,57.40
2018-09-17T09:12:21.987Z,57.57
2018-09-17T09:14:56.652Z,56.69
2018-09-17T09:17:26.336Z,56.79
2018-09-17T09:19:55.871Z,57.32
2018-09-17T09:22:25.586Z,56.82
2018-09-17T09:24:55.102Z,55.75
2018-09-17T09:27:24.586Z,56.11
2018-09-17T09:29:54.389Z,55.59
2018-09-17T09:32:23.876Z,54.80
2018-09-17T09:34:53.633Z,54.84
2018-09-17T09:37:23.097Z,54.59
2018-09-17T09:39:52.559Z,53.97
2018-09-17T09:42:22.124Z,53.38
2018-09-17T09:44:51.696Z,54.14
2018-09-17T09:47:21.119Z,53.01
2018-09-17T09:49:50.572Z,52.75
2018-09-17T09:52:20.177Z,52.04
2018-09-17T09:54:49.615Z,52.41
2018-09-17T09:57:19.164Z,52.42
2018-09-17T09:59:48.614Z,51.46
2018-09-17T10:02:23.263Z,52.56
2018-09-17T10:04:53.065Z,53.11
2018-09-17T10:07:23.101Z,52.32
2018-09-17T10:09:57.957Z,50.67
2018-09-17T10:12:32.698Z,51.37
2018-09-17T10:15:07.423Z,50.91
2018-09-17T10:17:41.949Z,51.63
2018-09-17T10:20:11.461Z,51.67
2018-09-17T10:22:40.910Z,51.23
2018-09-17T10:25:11.319Z,52.30
2018-09-17T10:27:40.847Z,51.30
2018-09-17T10:30:10.794Z,51.33
2018-09-17T10:32:40.306Z,51.14
2018-09-17T10:35:09.772Z,51.34
2018-09-17T10:37:39.224Z,51.23
2018-09-17T10:40:09.015Z,50.92
2018-09-17T10:42:38.437Z,50.79
2018-09-17T10:45:08.111Z,49.89
2018-09-17T10:47:37.580Z,50.21
2018-09-17T10:50:07.122Z,50.16
2018-09-17T10:52:36.754Z,49.80
2018-09-17T10:55:06.272Z,50.35
2018-09-17T10:57:35.841Z,49.53
2018-09-17T11:00:05.651Z,48.02
2018-09-17T11:02:35.114Z,46.79
2018-09-17T11:05:04.850Z,48.02
2018-09-17T11:07:34.552Z,47.47
2018-09-17T11:10:05.313Z,46.82
2018-09-17T11:12:34.859Z,47.84
2018-09-17T11:15:04.445Z,47.44
2018-09-17T11:17:33.882Z,47.48
2018-09-17T11:20:03.478Z,46.86
2018-09-17T11:22:32.960Z,44.98
2018-09-17T11:25:02.430Z,44.99
2018-09-17T11:27:31.894Z,45.64
2018-09-17T11:30:01.423Z,45.32
2018-09-17T11:32:30.894Z,45.51
2018-09-17T11:35:00.462Z,45.45
2018-09-17T11:37:30.450Z,45.68
2018-09-17T11:40:00.002Z,45.78
2018-09-17T11:42:29.494Z,44.78
2018-09-17T11:44:58.979Z,43.11
2018-09-17T11:47:28.558Z,44.00
2018-09-17T11:49:58.120Z,42.71
2018-09-17T11:52:27.651Z,43.66
2018-09-17T11:54:57.150Z,43.39
2018-09-17T11:57:26.738Z,42.80
2018-09-17T11:59:56.432Z,43.38
2018-09-17T12:02:31.377Z,42.49
2018-09-17T12:05:06.734Z,42.81
2018-09-17T12:07:41.065Z,41.44
2018-09-17T12:10:11.538Z,40.68
2018-09-17T12:12:41.053Z,40.52
2018-09-17T12:15:10.621Z,40.30
2018-09-17T12:17:40.050Z,41.13
2018-09-17T12:20:09.722Z,41.38
2018-09-17T12:22:39.167Z,40.37
2018-09-17T12:25:08.653Z,39.18
2018-09-17T12:27:38.107Z,38.40
2018-09-17T12:30:08.143Z,37.76
2018-09-17T12:32:37.756Z,36.77
2018-09-17T12:35:07.309Z,34.81
2018-09-17T12:37:36.812Z,31.21
2018-09-17T12:40:06.721Z,30.10
2018-09-17T12:42:36.469Z,29.93
2018-09-17T12:45:06.075Z,29.44
2018-09-17T12:47:35.541Z,28.41
2018-09-17T12:50:05.253Z,28.88
2018-09-17T12:52:34.718Z,27.39
2018-09-17T12:55:04.261Z,28.56
2018-09-17T12:57:33.753Z,28.62
2018-09-17T13:00:03.360Z,27.58
2018-09-17T13:02:32.813Z,27.38
2018-09-17T13:05:02.362Z,26.32
2018-09-17T13:07:31.814Z,27.99
2018-09-17T13:10:01.464Z,28.37
2018-09-17T13:12:30.959Z,27.73
2018-09-17T13:15:00.500Z,26.51
2018-09-17T13:17:30.020Z,27.23
2018-09-17T13:19:59.605Z,27.00
2018-09-17T13:22:29.034Z,27.29
2018-09-17T13:24:58.704Z,28.15
2018-09-17T13:27:28.112Z,26.56
2018-09-17T13:29:57.747Z,27.48
2018-09-17T13:32:27.280Z,27.63
2018-09-17T13:34:57.458Z,27.22
2018-09-17T13:37:26.991Z,26.92
2018-09-17T13:39:56.446Z,26.44
2018-09-17T13:42:25.990Z,26.82
2018-09-17T13:44:56.043Z,26.74
2018-09-17T13:47:25.818Z,25.58
2018-09-17T13:49:55.402Z,23.95
2018-09-17T13:52:24.889Z,25.88
2018-09-17T13:54:54.380Z,24.51
2018-09-17T13:57:24.230Z,25.10
2018-09-17T13:59:53.682Z,25.60
2018-09-17T14:02:23.160Z,25.47
2018-09-17T14:04:52.663Z,26.54
2018-09-17T14:07:22.112Z,25.87
2018-09-17T14:09:51.898Z,26.90
2018-09-17T14:12:21.489Z,24.60
2018-09-17T14:14:51.098Z,24.21
2018-09-17T14:17:20.743Z,23.70
2018-09-17T14:19:50.283Z,23.69
2018-09-17T14:22:19.805Z,23.00
2018-09-17T14:24:49.291Z,23.26
2018-09-17T14:27:18.820Z,23.68
2018-09-17T14:29:48.372Z,22.09
2018-09-17T14:32:23.308Z,22.93
2018-09-17T14:34:54.087Z,23.70
2018-09-17T14:37:23.681Z,23.57
2018-09-17T14:39:53.160Z,22.92
2018-09-17T14:42:22.651Z,23.05
2018-09-17T14:44:53.576Z,21.46
2018-09-17T14:47:23.056Z,22.46
2018-09-17T14:49:52.699Z,22.53
2018-09-17T14:52:22.359Z,21.78
2018-09-17T14:54:51.789Z,21.38
2018-09-17T14:57:21.287Z,20.90
2018-09-17T14:59:50.763Z,20.46
2018-09-17T15:03:49.873Z,21.24
2018-09-17T15:06:19.392Z,24.03
2018-09-17T15:08:48.888Z,24.04
2018-09-17T15:11:18.542Z,23.73
2018-09-17T15:13:48.190Z,23.93
2018-09-17T15:16:17.802Z,23.38
2018-09-17T15:18:47.272Z,24.69
2018-09-17T15:21:16.812Z,24.29
2018-09-17T15:23:46.767Z,24.40
2018-09-17T15:26:16.370Z,23.68
2018-09-17T15:28:45.734Z,24.19
2018-09-17T15:31:15.372Z,22.96
2018-09-17T15:33:44.731Z,22.50
2018-09-17T15:36:14.212Z,23.71
2018-09-17T15:38:43.895Z,23.45
2018-09-17T15:41:13.453Z,22.93
2018-09-17T15:43:42.916Z,23.05
2018-09-17T15:46:12.519Z,24.07
2018-09-17T15:48:42.062Z,24.96
2018-09-17T15:51:11.521Z,24.88
2018-09-17T15:53:41.046Z,26.45
2018-09-17T15:56:10.684Z,27.76
2018-09-17T15:58:40.177Z,29.42
2018-09-17T16:01:09.859Z,29.87
2018-09-17T16:03:39.438Z,31.05
2018-09-17T16:06:09.108Z,31.29
2018-09-17T16:08:38.758Z,32.53
2018-09-17T16:11:08.353Z,32.32
2018-09-17T16:13:37.843Z,32.19
2018-09-17T16:16:07.302Z,33.90
2018-09-17T16:18:36.927Z,34.41
2018-09-17T16:21:06.442Z,34.34
2018-09-17T16:23:36.029Z,34.08
2018-09-17T16:26:05.463Z,34.54
2018-09-17T16:28:34.979Z,34.48
2018-09-17T16:31:04.530Z,34.79
2018-09-17T16:33:34.042Z,36.58
2018-09-17T16:36:03.439Z,36.05
2018-09-17T16:38:33.074Z,37.71
2018-09-17T16:41:02.628Z,37.21
2018-09-17T16:43:32.121Z,37.53
2018-09-17T16:46:01.617Z,39.42
2018-09-17T16:48:31.242Z,41.02
2018-09-17T16:51:00.774Z,42.16
2018-09-17T16:53:30.714Z,42.48
2018-09-17T16:55:59.997Z,43.02
2018-09-17T16:58:29.660Z,42.92
2018-09-17T17:00:59.153Z,43.61
2018-09-17T17:03:28.781Z,45.71
2018-09-17T17:05:58.583Z,46.07
2018-09-17T17:08:28.163Z,46.58
2018-09-17T17:10:57.748Z,48.48
2018-09-17T17:13:27.622Z,49.34
2018-09-17T17:15:57.772Z,49.57
2018-09-17T17:18:27.292Z,51.03
2018-09-17T17:20:57.494Z,52.94
2018-09-17T17:23:26.957Z,52.39
2018-09-17T17:25:56.407Z,52.14
2018-09-17T17:28:26.005Z,51.99
2018-09-17T17:30:55.786Z,52.05
2018-09-17T17:33:25.440Z,53.19
2018-09-17T17:35:55.037Z,54.25
2018-09-17T17:38:24.586Z,55.25
2018-09-17T17:40:54.703Z,55.47
2018-09-17T17:43:24.749Z,56.29
2018-09-17T17:45:55.202Z,56.29
2018-09-17T17:48:25.645Z,57.02
2018-09-17T17:50:55.435Z,57.75
2018-09-17T17:53:25.349Z,59.27
2018-09-17T17:55:56.106Z,58.06
2018-09-17T17:58:25.803Z,59.05
2018-09-17T18:00:55.385Z,59.98
2018-09-17T18:03:26.067Z,59.84
2018-09-17T18:05:55.753Z,60.39
2018-09-17T18:08:25.307Z,60.63
2018-09-17T18:10:56.941Z,61.40
2018-09-17T18:13:27.545Z,60.97
2018-09-17T18:15:58.317Z,61.18
2018-09-17T18:18:29.900Z,61.89
2018-09-17T18:21:00.343Z,61.84
2018-09-17T18:23:29.969Z,62.91
2018-09-17T18:26:00.486Z,63.64
2018-09-17T18:28:30.136Z,62.71
2018-09-17T18:31:01.266Z,63.56
2018-09-17T18:33:31.283Z,64.10
2018-09-17T18:36:01.698Z,64.77
2018-09-17T18:38:31.553Z,65.51
2018-09-17T18:41:02.169Z,66.01
2018-09-17T18:43:32.868Z,66.75
2018-09-17T18:46:03.181Z,67.62
2018-09-17T18:48:34.487Z,67.53
2018-09-17T18:51:05.342Z,66.17
2018-09-17T18:53:34.854Z,68.26
2018-09-17T18:56:05.703Z,68.20
2018-09-17T18:58:37.301Z,69.10
2018-09-17T19:01:07.638Z,68.18
2018-09-17T19:03:37.607Z,69.94
2018-09-17T19:06:08.298Z,69.83
2018-09-17T19:08:37.832Z,71.04
2018-09-17T19:11:08.433Z,71.86
2018-09-17T19:13:39.092Z,70.54
2018-09-17T19:16:08.951Z,70.07
2018-09-17T19:18:38.603Z,70.96
2018-09-17T19:21:08.910Z,72.36
2018-09-17T19:23:43.552Z,71.87
2018-09-17T19:26:13.114Z,73.99
2018-09-17T19:28:48.105Z,72.61
2018-09-17T19:31:17.625Z,72.74
2018-09-17T19:33:47.462Z,73.83
2018-09-17T19:36:17.062Z,73.84
2018-09-17T19:38:51.588Z,72.80
2018-09-17T19:41:21.212Z,73.27
2018-09-17T19:43:50.784Z,72.68
2018-09-17T19:46:21.127Z,73.40
2018-09-17T19:48:50.679Z,73.64
2018-09-17T19:51:25.470Z,74.04
2018-09-17T19:53:55.157Z,74.17
2018-09-17T19:56:24.709Z,73.83
2018-09-17T19:58:59.503Z,73.81
2018-09-17T20:01:29.086Z,73.52
2018-09-17T20:04:02.781Z,73.62
2018-09-17T20:06:32.228Z,73.54
2018-09-17T20:09:01.674Z,74.31
2018-09-17T20:11:31.196Z,75.00
2018-09-17T20:14:00.825Z,74.45
2018-09-17T20:16:30.330Z,74.80
2018-09-17T20:18:59.802Z,74.75
2018-09-17T20:21:29.241Z,76.30
2018-09-17T20:23:58.728Z,75.68
2018-09-17T20:26:28.172Z,74.38
2018-09-17T20:28:57.572Z,75.11
2018-09-17T20:31:27.060Z,76.04
2018-09-17T20:33:56.565Z,75.12
2018-09-17T20:36:26.022Z,75.99
2018-09-17T20:38:55.720Z,76.08
2018-09-17T20:41:25.205Z,75.43
2018-09-17T20:43:54.706Z,74.82
2018-09-17T20:46:24.154Z,75.53
2018-09-17T20:48:53.654Z,76.17
2018-09-17T20:51:23.131Z,76.61
2018-09-17T20:53:52.681Z,76.72
2018-09-17T20:56:22.086Z,76.49
2018-09-17T20:58:51.582Z,78.62
2018-09-17T21:01:21.026Z,77.69
2018-09-17T21:03:50.474Z,76.89
2018-09-17T21:06:19.885Z,76.41
2018-09-17T21:08:49.314Z,77.17
2018-09-17T21:11:18.821Z,76.84
2018-09-17T21:13:48.357Z,77.03
2018-09-17T21:16:17.871Z,77.55
2018-09-17T21:18:47.371Z,77.84
2018-09-17T21:21:16.957Z,77.22
2018-09-17T21:23:46.425Z,77.57
2018-09-17T21:26:15.909Z,77.71
2018-09-17T21:28:45.404Z,78.86
2018-09-17T21:31:14.904Z,78.68
2018-09-17T21:33:44.454Z,78.83
2018-09-17T21:36:13.886Z,80.43
2018-09-17T21:38:43.370Z,78.87
2018-09-17T21:41:12.864Z,79.08
2018-09-17T21:45:11.852Z,79.07
2018-09-17T21:47:41.334Z,79.65
2018-09-17T21:50:10.813Z,79.83
2018-09-17T21:52:40.293Z,81.01
2018-09-17T21:55:09.716Z,80.42
2018-09-17T21:57:39.152Z,80.66
2018-09-17T22:00:10.243Z,81.13
2018-09-17T22:02:39.715Z,81.55
2018-09-17T22:05:09.228Z,81.52
2018-09-17T22:07:38.715Z,80.61
2018-09-17T22:10:08.252Z,80.79
2018-09-17T22:12:37.781Z,79.85
2018-09-17T22:15:07.316Z,79.72
2018-09-17T22:17:36.815Z,79.47
2018-09-17T22:20:06.397Z,80.09
2018-09-17T22:22:35.948Z,80.54
2018-09-17T22:25:05.402Z,80.44
2018-09-17T22:27:34.852Z,80.03
2018-09-17T22:30:04.499Z,79.60
2018-09-17T22:32:33.983Z,80.01
2018-09-17T22:35:03.783Z,79.43
2018-09-17T22:37:33.285Z,80.10
2018-09-17T22:40:02.849Z,79.91
2018-09-17T22:42:33.491Z,79.63
2018-09-17T22:45:02.934Z,80.29
2018-09-17T22:47:32.423Z,79.77
2018-09-17T22:50:02.643Z,80.58
2018-09-17T22:52:32.174Z,79.68
2018-09-17T22:55:01.667Z,79.97
2018-09-17T22:57:31.274Z,80.86
2018-09-17T23:00:00.764Z,80.12
2018-09-17T23:02:30.263Z,80.31
2018-09-17T23:04:59.717Z,80.66
2018-09-17T23:07:29.189Z,81.48
2018-09-17T23:09:58.686Z,81.20
2018-09-17T23:12:28.141Z,81.17
2018-09-17T23:14:57.718Z,80.35
2018-09-17T23:17:27.269Z,79.83
2018-09-17T23:19:56.765Z,80.04
2018-09-17T23:22:26.230Z,80.46
2018-09-17T23:24:55.689Z,81.11
2018-09-17T23:27:25.148Z,82.18
2018-09-17T23:29:54.620Z,82.21
2018-09-17T23:32:24.177Z,81.55
2018-09-17T23:34:53.683Z,81.49
2018-09-17T23:37:23.140Z,82.00
2018-09-17T23:39:53.494Z,82.38
2018-09-17T23:42:23.021Z,82.10
2018-09-17T23:44:52.527Z,81.82
2018-09-17T23:47:22.008Z,82.87
2018-09-17T23:49:51.911Z,82.51
2018-09-17T23:52:21.458Z,82.19
2018-09-17T23:54:50.969Z,82.82
2018-09-17T23:57:20.461Z,83.87
2018-09-17T23:59:50.031Z,84.14
